sensor_id;sensor_type;location;lat;lon;timestamp;pressure;altitude;pressure_sealevel;temperature;humidity
54144;BME280;40050;47.324;18.792;2023-02-18T00:00:20;1007.06;;;12.68;60.30
54144;BME280;40050;47.324;18.792;2023-02-18T00:02:22;1007.00;;;12.73;61.31
54144;BME280;40050;47.324;18.792;2023-02-18T00:04:24;1006.95;;;12.74;61.68
54144;BME280;40050;47.324;18.792;2023-02-18T00:06:29;1006.98;;;12.79;62.27
54144;BME280;40050;47.324;18.792;2023-02-18T00:08:32;1006.82;;;12.75;62.30
54144;BME280;40050;47.324;18.792;2023-02-18T00:10:34;1007.00;;;12.93;62.24
54144;BME280;40050;47.324;18.792;2023-02-18T00:12:36;1007.01;;;12.98;62.14
54144;BME280;40050;47.324;18.792;2023-02-18T00:14:39;1006.96;;;12.99;62.31
54144;BME280;40050;47.324;18.792;2023-02-18T00:16:41;1006.96;;;13.04;62.17
54144;BME280;40050;47.324;18.792;2023-02-18T00:18:44;1006.95;;;13.12;62.01
54144;BME280;40050;47.324;18.792;2023-02-18T00:20:46;1006.85;;;13.08;61.84
54144;BME280;40050;47.324;18.792;2023-02-18T00:22:49;1006.99;;;13.16;61.81
54144;BME280;40050;47.324;18.792;2023-02-18T00:24:51;1007.01;;;13.19;61.79
54144;BME280;40050;47.324;18.792;2023-02-18T00:26:53;1006.87;;;13.16;61.63
54144;BME280;40050;47.324;18.792;2023-02-18T00:28:56;1007.00;;;13.25;61.55
54144;BME280;40050;47.324;18.792;2023-02-18T00:30:58;1006.90;;;13.28;61.39
54144;BME280;40050;47.324;18.792;2023-02-18T00:33:00;1006.80;;;13.28;61.25
54144;BME280;40050;47.324;18.792;2023-02-18T00:35:03;1006.78;;;13.34;61.22
54144;BME280;40050;47.324;18.792;2023-02-18T00:37:08;1006.83;;;13.37;61.20
54144;BME280;40050;47.324;18.792;2023-02-18T00:39:10;1006.91;;;13.45;61.06
54144;BME280;40050;47.324;18.792;2023-02-18T00:41:13;1006.80;;;13.47;60.67
54144;BME280;40050;47.324;18.792;2023-02-18T00:43:16;1006.87;;;13.54;60.77
54144;BME280;40050;47.324;18.792;2023-02-18T00:45:18;1006.86;;;13.56;60.53
54144;BME280;40050;47.324;18.792;2023-02-18T00:47:21;1006.74;;;13.62;60.68
54144;BME280;40050;47.324;18.792;2023-02-18T00:49:23;1006.79;;;13.64;60.19
54144;BME280;40050;47.324;18.792;2023-02-18T00:51:26;1006.78;;;13.70;60.33
54144;BME280;40050;47.324;18.792;2023-02-18T00:53:28;1006.79;;;13.72;60.12
54144;BME280;40050;47.324;18.792;2023-02-18T00:55:31;1006.73;;;13.77;59.67
54144;BME280;40050;47.324;18.792;2023-02-18T00:57:33;1006.79;;;13.79;59.73
54144;BME280;40050;47.324;18.792;2023-02-18T00:59:35;1006.84;;;13.83;59.55
54144;BME280;40050;47.324;18.792;2023-02-18T01:01:38;1006.67;;;13.86;59.47
54144;BME280;40050;47.324;18.792;2023-02-18T01:03:40;1006.65;;;13.80;57.75
54144;BME280;40050;47.324;18.792;2023-02-18T01:05:43;1006.64;;;13.74;57.78
54144;BME280;40050;47.324;18.792;2023-02-18T01:07:46;1006.71;;;13.71;57.96
54144;BME280;40050;47.324;18.792;2023-02-18T01:09:48;1006.58;;;13.68;58.26
54144;BME280;40050;47.324;18.792;2023-02-18T01:11:50;1006.54;;;13.64;59.00
54144;BME280;40050;47.324;18.792;2023-02-18T01:13:53;1006.61;;;13.63;59.84
54144;BME280;40050;47.324;18.792;2023-02-18T01:15:55;1006.70;;;13.69;59.93
54144;BME280;40050;47.324;18.792;2023-02-18T01:17:58;1006.66;;;13.73;60.12
54144;BME280;40050;47.324;18.792;2023-02-18T01:20:00;1006.63;;;13.80;60.27
54144;BME280;40050;47.324;18.792;2023-02-18T01:22:03;1006.60;;;13.86;59.79
54144;BME280;40050;47.324;18.792;2023-02-18T01:24:05;1006.59;;;13.89;59.89
54144;BME280;40050;47.324;18.792;2023-02-18T01:26:08;1006.58;;;13.94;59.52
54144;BME280;40050;47.324;18.792;2023-02-18T01:28:11;1006.54;;;13.94;59.61
54144;BME280;40050;47.324;18.792;2023-02-18T01:30:14;1006.50;;;13.99;59.59
54144;BME280;40050;47.324;18.792;2023-02-18T01:32:17;1006.48;;;14.00;59.58
54144;BME280;40050;47.324;18.792;2023-02-18T01:34:19;1006.46;;;14.02;59.25
54144;BME280;40050;47.324;18.792;2023-02-18T01:36:22;1006.49;;;14.01;59.36
54144;BME280;40050;47.324;18.792;2023-02-18T01:38:24;1006.54;;;14.05;58.93
54144;BME280;40050;47.324;18.792;2023-02-18T01:40:28;1006.43;;;14.04;59.10
54144;BME280;40050;47.324;18.792;2023-02-18T01:42:30;1006.46;;;14.05;58.92
54144;BME280;40050;47.324;18.792;2023-02-18T01:44:33;1006.46;;;14.06;59.03
54144;BME280;40050;47.324;18.792;2023-02-18T01:46:35;1006.59;;;14.11;59.09
54144;BME280;40050;47.324;18.792;2023-02-18T01:48:54;1006.50;;;14.13;59.07
54144;BME280;40050;47.324;18.792;2023-02-18T01:51:19;1006.52;;;14.15;59.08
54144;BME280;40050;47.324;18.792;2023-02-18T01:53:13;1006.44;;;14.16;59.08
54144;BME280;40050;47.324;18.792;2023-02-18T01:55:16;1006.43;;;14.17;58.93
54144;BME280;40050;47.324;18.792;2023-02-18T01:57:26;1006.51;;;14.21;59.11
54144;BME280;40050;47.324;18.792;2023-02-18T01:59:32;1006.48;;;14.25;58.97
54144;BME280;40050;47.324;18.792;2023-02-18T02:01:35;1006.57;;;14.27;58.37
54144;BME280;40050;47.324;18.792;2023-02-18T02:03:38;1006.40;;;14.13;57.58
54144;BME280;40050;47.324;18.792;2023-02-18T02:05:40;1006.48;;;14.14;57.08
54144;BME280;40050;47.324;18.792;2023-02-18T02:07:43;1006.45;;;13.88;56.92
54144;BME280;40050;47.324;18.792;2023-02-18T02:09:46;1006.47;;;13.84;56.45
54144;BME280;40050;47.324;18.792;2023-02-18T02:14:21;1006.37;;;13.42;56.87
54144;BME280;40050;47.324;18.792;2023-02-18T02:19:03;1006.18;;;13.31;57.02
54144;BME280;40050;47.324;18.792;2023-02-18T02:23:33;1006.26;;;13.18;57.53
54144;BME280;40050;47.324;18.792;2023-02-18T02:28:29;1006.30;;;12.94;57.86
54144;BME280;40050;47.324;18.792;2023-02-18T02:30:41;1006.32;;;12.98;57.58
54144;BME280;40050;47.324;18.792;2023-02-18T02:32:51;1006.30;;;12.90;57.74
54144;BME280;40050;47.324;18.792;2023-02-18T02:35:17;1006.29;;;12.23;59.50
54144;BME280;40050;47.324;18.792;2023-02-18T02:37:25;1006.17;;;11.98;60.43
54144;BME280;40050;47.324;18.792;2023-02-18T02:42:02;1006.15;;;11.78;61.14
54144;BME280;40050;47.324;18.792;2023-02-18T02:44:19;1005.94;;;11.46;61.55
54144;BME280;40050;47.324;18.792;2023-02-18T02:46:25;1006.32;;;11.86;61.09
54144;BME280;40050;47.324;18.792;2023-02-18T02:50:52;1006.39;;;11.96;60.69
54144;BME280;40050;47.324;18.792;2023-02-18T02:52:59;1006.34;;;12.05;60.36
54144;BME280;40050;47.324;18.792;2023-02-18T02:55:10;1006.37;;;12.05;60.34
54144;BME280;40050;47.324;18.792;2023-02-18T02:59:27;1006.27;;;11.93;60.20
54144;BME280;40050;47.324;18.792;2023-02-18T03:06:09;1006.23;;;11.99;60.23
54144;BME280;40050;47.324;18.792;2023-02-18T03:10:31;1006.43;;;12.05;60.18
54144;BME280;40050;47.324;18.792;2023-02-18T03:17:11;1006.37;;;11.89;61.17
54144;BME280;40050;47.324;18.792;2023-02-18T03:19:23;1006.44;;;11.95;61.14
54144;BME280;40050;47.324;18.792;2023-02-18T03:21:51;1006.34;;;11.98;61.06
54144;BME280;40050;47.324;18.792;2023-02-18T03:23:48;1006.32;;;12.00;60.94
54144;BME280;40050;47.324;18.792;2023-02-18T03:25:54;1006.40;;;12.04;60.84
54144;BME280;40050;47.324;18.792;2023-02-18T03:28:02;1006.50;;;12.07;60.82
54144;BME280;40050;47.324;18.792;2023-02-18T03:30:11;1006.65;;;12.13;60.77
54144;BME280;40050;47.324;18.792;2023-02-18T03:32:17;1006.69;;;12.15;60.72
54144;BME280;40050;47.324;18.792;2023-02-18T03:34:28;1006.69;;;12.11;60.79
54144;BME280;40050;47.324;18.792;2023-02-18T03:36:31;1006.68;;;12.07;60.78
54144;BME280;40050;47.324;18.792;2023-02-18T03:38:35;1006.68;;;12.06;60.63
54144;BME280;40050;47.324;18.792;2023-02-18T03:40:39;1006.73;;;11.98;60.29
54144;BME280;40050;47.324;18.792;2023-02-18T03:42:41;1006.72;;;11.90;59.97
54144;BME280;40050;47.324;18.792;2023-02-18T03:44:43;1006.75;;;11.84;59.81
54144;BME280;40050;47.324;18.792;2023-02-18T03:46:46;1006.70;;;11.72;59.92
54144;BME280;40050;47.324;18.792;2023-02-18T03:48:48;1006.75;;;11.66;60.10
54144;BME280;40050;47.324;18.792;2023-02-18T03:50:50;1006.76;;;11.58;60.28
54144;BME280;40050;47.324;18.792;2023-02-18T03:52:53;1006.83;;;11.57;60.39
54144;BME280;40050;47.324;18.792;2023-02-18T03:54:55;1006.82;;;11.52;60.78
54144;BME280;40050;47.324;18.792;2023-02-18T03:56:57;1006.76;;;11.57;61.14
54144;BME280;40050;47.324;18.792;2023-02-18T03:59:00;1006.82;;;11.60;62.06
54144;BME280;40050;47.324;18.792;2023-02-18T04:01:02;1006.67;;;11.78;66.22
54144;BME280;40050;47.324;18.792;2023-02-18T04:03:05;1006.77;;;11.96;66.10
54144;BME280;40050;47.324;18.792;2023-02-18T04:07:37;1006.62;;;12.44;65.74
54144;BME280;40050;47.324;18.792;2023-02-18T04:09:39;1006.64;;;12.63;65.24
54144;BME280;40050;47.324;18.792;2023-02-18T04:11:42;1006.67;;;12.77;64.81
54144;BME280;40050;47.324;18.792;2023-02-18T04:13:44;1006.58;;;12.92;64.43
54144;BME280;40050;47.324;18.792;2023-02-18T04:15:50;1006.60;;;13.09;63.85
54144;BME280;40050;47.324;18.792;2023-02-18T04:17:52;1006.60;;;13.22;63.44
54144;BME280;40050;47.324;18.792;2023-02-18T04:19:54;1006.51;;;13.31;63.28
54144;BME280;40050;47.324;18.792;2023-02-18T04:21:57;1006.37;;;13.43;62.81
54144;BME280;40050;47.324;18.792;2023-02-18T04:23:59;1006.53;;;13.54;62.20
54144;BME280;40050;47.324;18.792;2023-02-18T04:26:02;1006.49;;;13.65;61.96
54144;BME280;40050;47.324;18.792;2023-02-18T04:28:04;1006.46;;;13.77;61.34
54144;BME280;40050;47.324;18.792;2023-02-18T04:30:07;1006.54;;;13.78;61.48
54144;BME280;40050;47.324;18.792;2023-02-18T04:32:09;1006.52;;;13.88;61.11
54144;BME280;40050;47.324;18.792;2023-02-18T04:34:11;1006.66;;;13.94;61.25
54144;BME280;40050;47.324;18.792;2023-02-18T04:36:14;1006.54;;;13.97;60.83
54144;BME280;40050;47.324;18.792;2023-02-18T04:38:16;1006.55;;;13.98;60.66
54144;BME280;40050;47.324;18.792;2023-02-18T04:40:18;1006.52;;;14.02;60.75
54144;BME280;40050;47.324;18.792;2023-02-18T04:42:21;1006.59;;;14.07;60.69
54144;BME280;40050;47.324;18.792;2023-02-18T04:44:23;1006.58;;;14.08;60.42
54144;BME280;40050;47.324;18.792;2023-02-18T04:46:26;1006.67;;;14.11;60.29
54144;BME280;40050;47.324;18.792;2023-02-18T04:48:28;1006.58;;;14.11;60.26
54144;BME280;40050;47.324;18.792;2023-02-18T04:50:30;1006.64;;;14.13;60.26
54144;BME280;40050;47.324;18.792;2023-02-18T04:52:33;1006.66;;;14.17;59.92
54144;BME280;40050;47.324;18.792;2023-02-18T04:54:35;1006.62;;;14.15;60.19
54144;BME280;40050;47.324;18.792;2023-02-18T04:56:38;1006.72;;;14.19;60.19
54144;BME280;40050;47.324;18.792;2023-02-18T04:58:40;1006.73;;;14.22;60.10
54144;BME280;40050;47.324;18.792;2023-02-18T05:00:42;1006.68;;;14.20;59.95
54144;BME280;40050;47.324;18.792;2023-02-18T05:02:45;1006.70;;;14.24;60.08
54144;BME280;40050;47.324;18.792;2023-02-18T05:07:17;1006.73;;;14.20;60.06
54144;BME280;40050;47.324;18.792;2023-02-18T05:09:19;1006.75;;;14.20;59.98
54144;BME280;40050;47.324;18.792;2023-02-18T05:11:22;1006.79;;;14.26;60.09
54144;BME280;40050;47.324;18.792;2023-02-18T05:13:24;1006.73;;;14.26;59.92
54144;BME280;40050;47.324;18.792;2023-02-18T05:15:27;1006.81;;;14.24;59.89
54144;BME280;40050;47.324;18.792;2023-02-18T05:17:29;1006.71;;;14.18;59.89
54144;BME280;40050;47.324;18.792;2023-02-18T05:19:31;1006.87;;;14.26;59.91
54144;BME280;40050;47.324;18.792;2023-02-18T05:21:34;1006.86;;;14.28;59.94
54144;BME280;40050;47.324;18.792;2023-02-18T05:23:36;1006.84;;;14.28;59.79
54144;BME280;40050;47.324;18.792;2023-02-18T05:25:38;1006.94;;;14.30;59.80
54144;BME280;40050;47.324;18.792;2023-02-18T05:27:41;1006.95;;;14.26;59.87
54144;BME280;40050;47.324;18.792;2023-02-18T05:29:43;1006.97;;;14.28;59.83
54144;BME280;40050;47.324;18.792;2023-02-18T05:31:46;1006.99;;;14.32;59.90
54144;BME280;40050;47.324;18.792;2023-02-18T05:33:48;1007.00;;;14.29;60.08
54144;BME280;40050;47.324;18.792;2023-02-18T05:35:50;1007.00;;;14.29;60.20
54144;BME280;40050;47.324;18.792;2023-02-18T05:37:53;1007.02;;;14.32;60.03
54144;BME280;40050;47.324;18.792;2023-02-18T05:39:55;1007.10;;;14.34;60.09
54144;BME280;40050;47.324;18.792;2023-02-18T05:41:57;1007.13;;;14.39;60.02
54144;BME280;40050;47.324;18.792;2023-02-18T05:44:00;1007.15;;;14.37;60.05
54144;BME280;40050;47.324;18.792;2023-02-18T05:46:02;1007.20;;;14.42;60.15
54144;BME280;40050;47.324;18.792;2023-02-18T05:48:04;1007.22;;;14.35;60.22
54144;BME280;40050;47.324;18.792;2023-02-18T05:50:07;1007.26;;;14.39;60.09
54144;BME280;40050;47.324;18.792;2023-02-18T05:52:09;1007.38;;;14.40;60.16
54144;BME280;40050;47.324;18.792;2023-02-18T05:54:12;1007.43;;;14.37;60.25
54144;BME280;40050;47.324;18.792;2023-02-18T05:56:15;1007.37;;;14.44;60.02
54144;BME280;40050;47.324;18.792;2023-02-18T05:58:17;1007.46;;;14.42;60.14
54144;BME280;40050;47.324;18.792;2023-02-18T06:00:19;1007.48;;;14.42;60.16
54144;BME280;40050;47.324;18.792;2023-02-18T06:02:22;1007.57;;;14.44;60.16
54144;BME280;40050;47.324;18.792;2023-02-18T06:04:24;1007.61;;;14.43;60.25
54144;BME280;40050;47.324;18.792;2023-02-18T06:06:26;1007.62;;;14.40;60.31
54144;BME280;40050;47.324;18.792;2023-02-18T06:08:29;1007.76;;;14.38;60.38
54144;BME280;40050;47.324;18.792;2023-02-18T06:10:31;1007.78;;;14.40;60.46
54144;BME280;40050;47.324;18.792;2023-02-18T06:12:34;1007.87;;;14.38;60.53
54144;BME280;40050;47.324;18.792;2023-02-18T06:14:36;1007.87;;;14.33;60.76
54144;BME280;40050;47.324;18.792;2023-02-18T06:16:39;1007.96;;;14.29;60.92
54144;BME280;40050;47.324;18.792;2023-02-18T06:18:41;1007.94;;;14.31;60.88
54144;BME280;40050;47.324;18.792;2023-02-18T06:20:45;1008.06;;;14.30;61.00
54144;BME280;40050;47.324;18.792;2023-02-18T06:22:47;1008.00;;;14.29;61.37
54144;BME280;40050;47.324;18.792;2023-02-18T06:24:50;1008.00;;;14.27;61.59
54144;BME280;40050;47.324;18.792;2023-02-18T06:26:52;1008.03;;;14.21;61.99
54144;BME280;40050;47.324;18.792;2023-02-18T06:28:54;1008.00;;;14.22;62.29
54144;BME280;40050;47.324;18.792;2023-02-18T06:30:57;1008.00;;;14.22;62.61
54144;BME280;40050;47.324;18.792;2023-02-18T06:32:59;1008.01;;;14.17;62.87
54144;BME280;40050;47.324;18.792;2023-02-18T06:35:01;1008.03;;;14.12;63.33
54144;BME280;40050;47.324;18.792;2023-02-18T06:37:04;1008.14;;;14.08;63.93
54144;BME280;40050;47.324;18.792;2023-02-18T06:39:06;1008.23;;;14.03;65.30
54144;BME280;40050;47.324;18.792;2023-02-18T06:41:09;1008.09;;;13.91;64.96
54144;BME280;40050;47.324;18.792;2023-02-18T06:43:12;1008.24;;;13.92;65.43
54144;BME280;40050;47.324;18.792;2023-02-18T06:45:14;1008.16;;;13.89;66.04
54144;BME280;40050;47.324;18.792;2023-02-18T06:47:17;1008.18;;;13.83;66.28
54144;BME280;40050;47.324;18.792;2023-02-18T06:49:19;1008.21;;;13.79;66.35
54144;BME280;40050;47.324;18.792;2023-02-18T06:51:22;1007.91;;;13.60;67.02
54144;BME280;40050;47.324;18.792;2023-02-18T06:53:24;1008.20;;;13.74;66.95
54144;BME280;40050;47.324;18.792;2023-02-18T06:55:27;1008.16;;;13.68;67.21
54144;BME280;40050;47.324;18.792;2023-02-18T06:57:29;1008.26;;;13.63;67.64
54144;BME280;40050;47.324;18.792;2023-02-18T06:59:31;1008.21;;;13.56;67.50
54144;BME280;40050;47.324;18.792;2023-02-18T07:01:34;1008.19;;;13.55;67.58
54144;BME280;40050;47.324;18.792;2023-02-18T07:03:36;1008.15;;;13.53;67.65
54144;BME280;40050;47.324;18.792;2023-02-18T07:05:39;1008.18;;;13.53;67.54
54144;BME280;40050;47.324;18.792;2023-02-18T07:07:41;1008.19;;;13.50;67.59
54144;BME280;40050;47.324;18.792;2023-02-18T07:09:43;1008.15;;;13.50;67.42
54144;BME280;40050;47.324;18.792;2023-02-18T07:11:46;1008.08;;;13.53;67.19
54144;BME280;40050;47.324;18.792;2023-02-18T07:13:48;1008.10;;;13.52;67.09
54144;BME280;40050;47.324;18.792;2023-02-18T07:15:50;1008.14;;;13.52;67.08
54144;BME280;40050;47.324;18.792;2023-02-18T07:17:53;1008.12;;;13.54;67.04
54144;BME280;40050;47.324;18.792;2023-02-18T07:19:55;1008.08;;;13.58;66.68
54144;BME280;40050;47.324;18.792;2023-02-18T07:21:57;1008.12;;;13.55;66.67
54144;BME280;40050;47.324;18.792;2023-02-18T07:24:00;1008.13;;;13.60;66.57
54144;BME280;40050;47.324;18.792;2023-02-18T07:26:06;1008.20;;;13.58;66.54
54144;BME280;40050;47.324;18.792;2023-02-18T07:28:09;1008.18;;;13.60;66.49
54144;BME280;40050;47.324;18.792;2023-02-18T07:30:11;1008.09;;;13.65;66.23
54144;BME280;40050;47.324;18.792;2023-02-18T07:32:14;1008.08;;;13.59;66.45
54144;BME280;40050;47.324;18.792;2023-02-18T07:34:17;1008.04;;;13.63;66.38
54144;BME280;40050;47.324;18.792;2023-02-18T07:36:19;1007.98;;;13.55;66.49
54144;BME280;40050;47.324;18.792;2023-02-18T07:38:22;1008.01;;;13.66;66.23
54144;BME280;40050;47.324;18.792;2023-02-18T07:40:25;1007.99;;;13.67;65.79
54144;BME280;40050;47.324;18.792;2023-02-18T07:42:29;1008.02;;;13.69;65.85
54144;BME280;40050;47.324;18.792;2023-02-18T07:44:31;1007.94;;;13.58;65.86
54144;BME280;40050;47.324;18.792;2023-02-18T07:46:38;1008.03;;;13.60;65.91
54144;BME280;40050;47.324;18.792;2023-02-18T07:48:41;1007.90;;;13.58;65.91
54144;BME280;40050;47.324;18.792;2023-02-18T07:50:44;1007.99;;;13.64;65.90
54144;BME280;40050;47.324;18.792;2023-02-18T07:52:46;1008.01;;;13.66;65.83
54144;BME280;40050;47.324;18.792;2023-02-18T07:54:49;1007.97;;;13.68;65.86
54144;BME280;40050;47.324;18.792;2023-02-18T07:56:51;1007.90;;;13.66;65.77
54144;BME280;40050;47.324;18.792;2023-02-18T07:58:53;1007.93;;;13.70;65.81
54144;BME280;40050;47.324;18.792;2023-02-18T08:00:56;1007.84;;;13.69;65.72
54144;BME280;40050;47.324;18.792;2023-02-18T08:03:01;1007.84;;;13.73;65.70
54144;BME280;40050;47.324;18.792;2023-02-18T08:05:05;1007.87;;;13.75;65.82
54144;BME280;40050;47.324;18.792;2023-02-18T08:07:11;1007.89;;;13.75;65.65
54144;BME280;40050;47.324;18.792;2023-02-18T08:09:15;1007.95;;;13.82;65.80
54144;BME280;40050;47.324;18.792;2023-02-18T08:11:19;1007.94;;;13.88;65.75
54144;BME280;40050;47.324;18.792;2023-02-18T08:13:23;1007.93;;;13.94;65.92
54144;BME280;40050;47.324;18.792;2023-02-18T08:15:25;1007.90;;;14.03;65.99
54144;BME280;40050;47.324;18.792;2023-02-18T08:17:28;1007.95;;;14.14;66.17
54144;BME280;40050;47.324;18.792;2023-02-18T08:19:31;1007.97;;;14.22;66.14
54144;BME280;40050;47.324;18.792;2023-02-18T08:21:35;1008.00;;;14.30;65.76
54144;BME280;40050;47.324;18.792;2023-02-18T08:23:37;1007.98;;;14.37;65.52
54144;BME280;40050;47.324;18.792;2023-02-18T08:25:40;1008.05;;;14.48;65.48
54144;BME280;40050;47.324;18.792;2023-02-18T08:27:45;1008.03;;;14.53;65.15
54144;BME280;40050;47.324;18.792;2023-02-18T08:29:49;1007.95;;;14.62;65.28
54144;BME280;40050;47.324;18.792;2023-02-18T08:31:52;1007.95;;;14.77;65.35
54144;BME280;40050;47.324;18.792;2023-02-18T08:33:55;1007.95;;;14.88;64.81
54144;BME280;40050;47.324;18.792;2023-02-18T08:35:58;1007.97;;;14.97;64.86
54144;BME280;40050;47.324;18.792;2023-02-18T08:38:00;1008.04;;;15.17;65.08
54144;BME280;40050;47.324;18.792;2023-02-18T08:40:03;1007.96;;;15.38;64.85
54144;BME280;40050;47.324;18.792;2023-02-18T08:42:06;1007.97;;;15.60;64.78
54144;BME280;40050;47.324;18.792;2023-02-18T08:44:08;1007.95;;;15.81;64.28
54144;BME280;40050;47.324;18.792;2023-02-18T08:46:11;1007.89;;;16.01;63.86
54144;BME280;40050;47.324;18.792;2023-02-18T08:48:13;1007.83;;;16.17;62.74
54144;BME280;40050;47.324;18.792;2023-02-18T08:50:16;1007.78;;;16.34;61.97
54144;BME280;40050;47.324;18.792;2023-02-18T08:52:18;1007.79;;;16.46;61.20
54144;BME280;40050;47.324;18.792;2023-02-18T08:54:20;1007.77;;;16.57;60.78
54144;BME280;40050;47.324;18.792;2023-02-18T08:56:23;1007.78;;;16.71;60.72
54144;BME280;40050;47.324;18.792;2023-02-18T08:58:25;1007.83;;;16.80;59.63
54144;BME280;40050;47.324;18.792;2023-02-18T09:00:27;1007.80;;;16.91;59.96
54144;BME280;40050;47.324;18.792;2023-02-18T09:02:30;1007.76;;;17.04;58.88
54144;BME280;40050;47.324;18.792;2023-02-18T09:04:32;1007.71;;;17.16;58.64
54144;BME280;40050;47.324;18.792;2023-02-18T09:06:38;1007.79;;;17.29;58.81
54144;BME280;40050;47.324;18.792;2023-02-18T09:08:40;1007.73;;;17.40;57.99
54144;BME280;40050;47.324;18.792;2023-02-18T09:10:43;1007.53;;;17.37;56.74
54144;BME280;40050;47.324;18.792;2023-02-18T09:12:45;1007.62;;;17.55;57.05
54144;BME280;40050;47.324;18.792;2023-02-18T09:14:47;1007.62;;;17.68;57.49
54144;BME280;40050;47.324;18.792;2023-02-18T09:16:50;1007.65;;;17.81;56.46
54144;BME280;40050;47.324;18.792;2023-02-18T09:18:52;1007.63;;;17.87;56.34
54144;BME280;40050;47.324;18.792;2023-02-18T09:20:55;1007.61;;;17.92;56.19
54144;BME280;40050;47.324;18.792;2023-02-18T09:22:58;1007.60;;;18.02;55.80
54144;BME280;40050;47.324;18.792;2023-02-18T09:25:00;1007.56;;;18.09;55.69
54144;BME280;40050;47.324;18.792;2023-02-18T09:27:03;1007.61;;;18.17;55.38
54144;BME280;40050;47.324;18.792;2023-02-18T09:29:05;1007.61;;;18.27;55.22
54144;BME280;40050;47.324;18.792;2023-02-18T09:31:12;1007.59;;;18.34;54.60
54144;BME280;40050;47.324;18.792;2023-02-18T09:33:14;1007.48;;;18.41;54.72
54144;BME280;40050;47.324;18.792;2023-02-18T09:35:18;1007.41;;;18.51;54.82
54144;BME280;40050;47.324;18.792;2023-02-18T09:37:23;1007.41;;;18.61;54.57
54144;BME280;40050;47.324;18.792;2023-02-18T09:39:27;1007.48;;;18.72;52.96
54144;BME280;40050;47.324;18.792;2023-02-18T09:43:48;1007.55;;;18.91;53.68
54144;BME280;40050;47.324;18.792;2023-02-18T09:45:52;1007.63;;;19.12;53.21
54144;BME280;40050;47.324;18.792;2023-02-18T09:47:55;1007.58;;;19.15;52.67
54144;BME280;40050;47.324;18.792;2023-02-18T09:50:05;1007.59;;;19.23;52.53
54144;BME280;40050;47.324;18.792;2023-02-18T09:52:16;1007.57;;;19.26;52.35
54144;BME280;40050;47.324;18.792;2023-02-18T09:54:20;1007.71;;;19.23;52.28
54144;BME280;40050;47.324;18.792;2023-02-18T09:56:26;1007.64;;;19.17;51.97
54144;BME280;40050;47.324;18.792;2023-02-18T09:58:55;1007.73;;;19.10;51.11
54144;BME280;40050;47.324;18.792;2023-02-18T10:00:58;1007.68;;;18.98;51.16
54144;BME280;40050;47.324;18.792;2023-02-18T10:05:37;1007.59;;;18.58;51.51
54144;BME280;40050;47.324;18.792;2023-02-18T10:07:42;1007.67;;;18.50;51.38
54144;BME280;40050;47.324;18.792;2023-02-18T10:09:45;1007.75;;;18.37;51.52
54144;BME280;40050;47.324;18.792;2023-02-18T10:11:52;1007.66;;;18.22;51.59
54144;BME280;40050;47.324;18.792;2023-02-18T10:14:00;1007.55;;;18.04;51.84
54144;BME280;40050;47.324;18.792;2023-02-18T10:16:07;1007.63;;;18.01;52.44
54144;BME280;40050;47.324;18.792;2023-02-18T10:20:27;1007.53;;;17.96;53.20
54144;BME280;40050;47.324;18.792;2023-02-18T10:24:57;1007.46;;;18.15;53.49
54144;BME280;40050;47.324;18.792;2023-02-18T10:27:01;1007.44;;;18.24;53.25
54144;BME280;40050;47.324;18.792;2023-02-18T10:29:08;1007.39;;;18.31;53.04
54144;BME280;40050;47.324;18.792;2023-02-18T10:31:19;1007.34;;;18.31;52.79
54144;BME280;40050;47.324;18.792;2023-02-18T10:33:49;1007.36;;;18.37;52.94
54144;BME280;40050;47.324;18.792;2023-02-18T10:35:58;1007.34;;;18.38;53.09
54144;BME280;40050;47.324;18.792;2023-02-18T10:38:19;1007.32;;;18.34;52.77
54144;BME280;40050;47.324;18.792;2023-02-18T10:40:34;1007.32;;;18.33;52.84
54144;BME280;40050;47.324;18.792;2023-02-18T10:42:45;1007.28;;;18.29;52.63
54144;BME280;40050;47.324;18.792;2023-02-18T10:51:47;1007.19;;;18.03;53.14
54144;BME280;40050;47.324;18.792;2023-02-18T10:53:52;1007.16;;;17.97;53.26
54144;BME280;40050;47.324;18.792;2023-02-18T10:55:55;1007.06;;;17.91;53.21
54144;BME280;40050;47.324;18.792;2023-02-18T10:57:58;1007.06;;;17.81;53.72
54144;BME280;40050;47.324;18.792;2023-02-18T11:00:19;1007.07;;;17.85;53.41
54144;BME280;40050;47.324;18.792;2023-02-18T11:02:17;1007.00;;;17.78;53.64
54144;BME280;40050;47.324;18.792;2023-02-18T11:04:20;1006.97;;;17.76;53.86
54144;BME280;40050;47.324;18.792;2023-02-18T11:06:41;1006.89;;;17.72;54.11
54144;BME280;40050;47.324;18.792;2023-02-18T11:08:44;1006.89;;;17.65;54.04
54144;BME280;40050;47.324;18.792;2023-02-18T11:10:48;1006.87;;;17.62;53.97
54144;BME280;40050;47.324;18.792;2023-02-18T11:12:58;1006.89;;;17.59;54.18
54144;BME280;40050;47.324;18.792;2023-02-18T11:15:24;1006.80;;;17.58;54.01
54144;BME280;40050;47.324;18.792;2023-02-18T11:17:26;1006.79;;;17.54;54.07
54144;BME280;40050;47.324;18.792;2023-02-18T11:19:36;1006.79;;;17.53;53.85
54144;BME280;40050;47.324;18.792;2023-02-18T11:21:42;1006.67;;;17.48;53.78
54144;BME280;40050;47.324;18.792;2023-02-18T11:23:50;1006.63;;;17.45;53.61
54144;BME280;40050;47.324;18.792;2023-02-18T11:26:00;1006.66;;;17.38;53.28
54144;BME280;40050;47.324;18.792;2023-02-18T11:28:24;1006.67;;;17.32;53.44
54144;BME280;40050;47.324;18.792;2023-02-18T11:30:23;1006.55;;;17.24;53.34
54144;BME280;40050;47.324;18.792;2023-02-18T11:32:27;1006.55;;;17.20;53.18
54144;BME280;40050;47.324;18.792;2023-02-18T11:34:30;1006.62;;;17.23;53.42
54144;BME280;40050;47.324;18.792;2023-02-18T11:36:34;1006.52;;;17.20;53.52
54144;BME280;40050;47.324;18.792;2023-02-18T11:38:41;1006.48;;;17.19;53.50
54144;BME280;40050;47.324;18.792;2023-02-18T11:41:01;1006.39;;;17.19;53.52
54144;BME280;40050;47.324;18.792;2023-02-18T11:43:06;1006.35;;;17.18;53.56
54144;BME280;40050;47.324;18.792;2023-02-18T11:45:25;1006.41;;;17.20;53.61
54144;BME280;40050;47.324;18.792;2023-02-18T11:47:36;1006.39;;;17.24;53.71